sensor_id;sensor_type;location;lat;lon;timestamp;temperature;humidity
3053;DHT22;1536;51.098;6.414;2023-03-01T00:00:54;4.20;90.90
3053;DHT22;1536;51.098;6.414;2023-03-01T00:03:21;4.20;90.90
3053;DHT22;1536;51.098;6.414;2023-03-01T00:05:48;4.20;91.10
3053;DHT22;1536;51.098;6.414;2023-03-01T00:08:15;4.10;91.00
3053;DHT22;1536;51.098;6.414;2023-03-01T00:10:41;4.10;91.10
3053;DHT22;1536;51.098;6.414;2023-03-01T00:13:09;4.10;91.30
3053;DHT22;1536;51.098;6.414;2023-03-01T00:15:38;4.00;91.30
3053;DHT22;1536;51.098;6.414;2023-03-01T00:18:06;4.00;91.40
3053;DHT22;1536;51.098;6.414;2023-03-01T00:20:33;4.00;91.60
3053;DHT22;1536;51.098;6.414;2023-03-01T00:23:00;4.00;91.60
3053;DHT22;1536;51.098;6.414;2023-03-01T00:25:27;4.00;91.70
3053;DHT22;1536;51.098;6.414;2023-03-01T00:27:53;3.90;91.70
3053;DHT22;1536;51.098;6.414;2023-03-01T00:30:21;3.90;91.80
3053;DHT22;1536;51.098;6.414;2023-03-01T00:32:48;3.90;91.90
3053;DHT22;1536;51.098;6.414;2023-03-01T00:35:15;3.90;92.00
3053;DHT22;1536;51.098;6.414;2023-03-01T00:37:42;3.90;92.10
3053;DHT22;1536;51.098;6.414;2023-03-01T00:40:09;3.90;92.10
3053;DHT22;1536;51.098;6.414;2023-03-01T00:42:36;3.80;92.10
3053;DHT22;1536;51.098;6.414;2023-03-01T00:45:04;3.80;92.10
3053;DHT22;1536;51.098;6.414;2023-03-01T00:47:32;3.80;92.20
3053;DHT22;1536;51.098;6.414;2023-03-01T00:49:59;3.80;92.30
3053;DHT22;1536;51.098;6.414;2023-03-01T00:52:26;3.80;92.30
3053;DHT22;1536;51.098;6.414;2023-03-01T00:54:53;3.80;92.40
3053;DHT22;1536;51.098;6.414;2023-03-01T00:57:20;3.80;92.50
3053;DHT22;1536;51.098;6.414;2023-03-01T00:59:47;3.80;92.90
3053;DHT22;1536;51.098;6.414;2023-03-01T01:02:13;3.70;92.50
3053;DHT22;1536;51.098;6.414;2023-03-01T01:04:41;3.80;92.60
3053;DHT22;1536;51.098;6.414;2023-03-01T01:07:08;3.80;92.70
3053;DHT22;1536;51.098;6.414;2023-03-01T01:09:35;3.70;92.80
3053;DHT22;1536;51.098;6.414;2023-03-01T01:12:02;3.70;92.80
3053;DHT22;1536;51.098;6.414;2023-03-01T01:14:29;3.70;92.80
3053;DHT22;1536;51.098;6.414;2023-03-01T01:16:56;3.70;92.90
3053;DHT22;1536;51.098;6.414;2023-03-01T01:19:23;3.70;92.90
3053;DHT22;1536;51.098;6.414;2023-03-01T01:21:52;3.70;93.00
3053;DHT22;1536;51.098;6.414;2023-03-01T01:24:19;3.70;93.10
3053;DHT22;1536;51.098;6.414;2023-03-01T01:26:46;3.70;93.10
3053;DHT22;1536;51.098;6.414;2023-03-01T01:29:13;3.70;93.10
3053;DHT22;1536;51.098;6.414;2023-03-01T01:31:41;3.60;93.00
3053;DHT22;1536;51.098;6.414;2023-03-01T01:34:14;3.40;92.90
3053;DHT22;1536;51.098;6.414;2023-03-01T01:36:41;3.40;93.00
3053;DHT22;1536;51.098;6.414;2023-03-01T01:41:39;3.30;93.10
3053;DHT22;1536;51.098;6.414;2023-03-01T01:44:16;3.30;93.30
3053;DHT22;1536;51.098;6.414;2023-03-01T01:46:46;3.20;93.40
3053;DHT22;1536;51.098;6.414;2023-03-01T01:49:28;3.20;93.50
3053;DHT22;1536;51.098;6.414;2023-03-01T01:52:02;3.20;93.60
3053;DHT22;1536;51.098;6.414;2023-03-01T01:54:39;3.20;93.70
3053;DHT22;1536;51.098;6.414;2023-03-01T01:57:09;3.10;93.80
3053;DHT22;1536;51.098;6.414;2023-03-01T01:59:38;3.10;93.90
3053;DHT22;1536;51.098;6.414;2023-03-01T02:02:05;3.10;94.00
3053;DHT22;1536;51.098;6.414;2023-03-01T02:04:32;3.10;94.10
3053;DHT22;1536;51.098;6.414;2023-03-01T02:07:02;3.10;94.10
3053;DHT22;1536;51.098;6.414;2023-03-01T02:09:32;3.00;94.10
3053;DHT22;1536;51.098;6.414;2023-03-01T02:12:00;3.00;94.20
3053;DHT22;1536;51.098;6.414;2023-03-01T02:14:27;2.90;94.10
3053;DHT22;1536;51.098;6.414;2023-03-01T02:16:54;2.90;94.10
3053;DHT22;1536;51.098;6.414;2023-03-01T02:19:31;2.90;94.20
3053;DHT22;1536;51.098;6.414;2023-03-01T02:22:06;2.80;94.10
3053;DHT22;1536;51.098;6.414;2023-03-01T02:24:40;2.80;94.10
3053;DHT22;1536;51.098;6.414;2023-03-01T02:27:14;2.70;94.10
3053;DHT22;1536;51.098;6.414;2023-03-01T02:29:43;2.70;94.20
3053;DHT22;1536;51.098;6.414;2023-03-01T02:32:11;2.60;94.30
3053;DHT22;1536;51.098;6.414;2023-03-01T02:34:38;2.60;94.40
3053;DHT22;1536;51.098;6.414;2023-03-01T02:37:10;2.60;94.40
3053;DHT22;1536;51.098;6.414;2023-03-01T02:39:41;2.50;94.40
3053;DHT22;1536;51.098;6.414;2023-03-01T02:42:12;2.50;94.50
3053;DHT22;1536;51.098;6.414;2023-03-01T02:44:39;2.40;94.60
3053;DHT22;1536;51.098;6.414;2023-03-01T02:47:07;2.40;94.70
3053;DHT22;1536;51.098;6.414;2023-03-01T02:49:35;2.40;94.90
3053;DHT22;1536;51.098;6.414;2023-03-01T02:55:00;2.30;95.00
3053;DHT22;1536;51.098;6.414;2023-03-01T02:57:29;2.30;95.50
3053;DHT22;1536;51.098;6.414;2023-03-01T02:59:58;2.30;95.50
3053;DHT22;1536;51.098;6.414;2023-03-01T03:02:29;2.30;95.80
3053;DHT22;1536;51.098;6.414;2023-03-01T03:05:04;2.40;96.00
3053;DHT22;1536;51.098;6.414;2023-03-01T03:07:33;2.40;96.20
3053;DHT22;1536;51.098;6.414;2023-03-01T03:10:00;2.40;96.30
3053;DHT22;1536;51.098;6.414;2023-03-01T03:12:27;2.40;96.50
3053;DHT22;1536;51.098;6.414;2023-03-01T03:14:54;2.50;96.60
3053;DHT22;1536;51.098;6.414;2023-03-01T03:17:21;2.50;96.60
3053;DHT22;1536;51.098;6.414;2023-03-01T03:19:49;2.50;96.60
3053;DHT22;1536;51.098;6.414;2023-03-01T03:22:15;2.50;96.60
3053;DHT22;1536;51.098;6.414;2023-03-01T03:24:42;2.50;96.60
3053;DHT22;1536;51.098;6.414;2023-03-01T03:27:09;2.50;96.60
3053;DHT22;1536;51.098;6.414;2023-03-01T03:29:36;2.50;96.60
3053;DHT22;1536;51.098;6.414;2023-03-01T03:32:03;2.50;96.60
3053;DHT22;1536;51.098;6.414;2023-03-01T03:34:30;2.50;96.80
3053;DHT22;1536;51.098;6.414;2023-03-01T03:36:58;2.50;96.60
3053;DHT22;1536;51.098;6.414;2023-03-01T03:39:25;2.50;96.60
3053;DHT22;1536;51.098;6.414;2023-03-01T03:41:52;2.50;96.60
3053;DHT22;1536;51.098;6.414;2023-03-01T03:44:19;2.40;96.60
3053;DHT22;1536;51.098;6.414;2023-03-01T03:46:46;2.40;96.70
3053;DHT22;1536;51.098;6.414;2023-03-01T03:49:13;2.40;96.80
3053;DHT22;1536;51.098;6.414;2023-03-01T03:51:40;2.30;96.80
3053;DHT22;1536;51.098;6.414;2023-03-01T03:54:08;2.30;96.90
3053;DHT22;1536;51.098;6.414;2023-03-01T03:56:36;2.30;97.00
3053;DHT22;1536;51.098;6.414;2023-03-01T03:59:02;2.20;97.00
3053;DHT22;1536;51.098;6.414;2023-03-01T04:01:31;2.20;97.20
3053;DHT22;1536;51.098;6.414;2023-03-01T04:03:58;2.20;97.30
3053;DHT22;1536;51.098;6.414;2023-03-01T04:06:29;2.20;97.40
3053;DHT22;1536;51.098;6.414;2023-03-01T04:08:56;2.20;97.50
3053;DHT22;1536;51.098;6.414;2023-03-01T04:11:25;2.20;97.60
3053;DHT22;1536;51.098;6.414;2023-03-01T04:13:56;2.20;97.70
3053;DHT22;1536;51.098;6.414;2023-03-01T04:16:23;2.20;97.70
3053;DHT22;1536;51.098;6.414;2023-03-01T04:18:50;2.10;97.70
3053;DHT22;1536;51.098;6.414;2023-03-01T04:21:19;2.10;97.70
3053;DHT22;1536;51.098;6.414;2023-03-01T04:23:46;2.10;97.80
3053;DHT22;1536;51.098;6.414;2023-03-01T04:26:12;2.10;97.90
3053;DHT22;1536;51.098;6.414;2023-03-01T04:28:41;2.10;98.00
3053;DHT22;1536;51.098;6.414;2023-03-01T04:31:11;2.10;98.00
3053;DHT22;1536;51.098;6.414;2023-03-01T04:33:44;2.10;98.00
3053;DHT22;1536;51.098;6.414;2023-03-01T04:36:12;2.10;98.00
3053;DHT22;1536;51.098;6.414;2023-03-01T04:38:40;2.10;98.10
3053;DHT22;1536;51.098;6.414;2023-03-01T04:41:08;2.10;98.10
3053;DHT22;1536;51.098;6.414;2023-03-01T04:43:36;2.00;98.10
3053;DHT22;1536;51.098;6.414;2023-03-01T04:46:06;1.90;98.30
3053;DHT22;1536;51.098;6.414;2023-03-01T04:48:35;2.00;98.50
3053;DHT22;1536;51.098;6.414;2023-03-01T04:51:02;2.00;98.40
3053;DHT22;1536;51.098;6.414;2023-03-01T04:53:30;2.00;98.50
3053;DHT22;1536;51.098;6.414;2023-03-01T04:55:58;2.10;98.50
3053;DHT22;1536;51.098;6.414;2023-03-01T04:58:26;2.10;98.50
3053;DHT22;1536;51.098;6.414;2023-03-01T05:00:54;2.10;98.40
3053;DHT22;1536;51.098;6.414;2023-03-01T05:03:22;2.10;98.40
3053;DHT22;1536;51.098;6.414;2023-03-01T05:05:50;2.10;98.40
3053;DHT22;1536;51.098;6.414;2023-03-01T05:08:18;2.10;98.40
3053;DHT22;1536;51.098;6.414;2023-03-01T05:10:48;2.10;98.40
3053;DHT22;1536;51.098;6.414;2023-03-01T05:13:15;2.20;98.50
3053;DHT22;1536;51.098;6.414;2023-03-01T05:15:47;2.20;98.40
3053;DHT22;1536;51.098;6.414;2023-03-01T05:18:14;2.20;98.40
3053;DHT22;1536;51.098;6.414;2023-03-01T05:20:42;2.20;98.40
3053;DHT22;1536;51.098;6.414;2023-03-01T05:23:10;2.20;98.40
3053;DHT22;1536;51.098;6.414;2023-03-01T05:25:37;2.20;98.30
3053;DHT22;1536;51.098;6.414;2023-03-01T05:28:06;2.20;98.30
3053;DHT22;1536;51.098;6.414;2023-03-01T05:30:33;2.20;98.30
3053;DHT22;1536;51.098;6.414;2023-03-01T05:33:01;2.10;98.20
3053;DHT22;1536;51.098;6.414;2023-03-01T05:35:28;2.10;98.30
3053;DHT22;1536;51.098;6.414;2023-03-01T05:37:59;2.10;98.20
3053;DHT22;1536;51.098;6.414;2023-03-01T05:40:25;2.10;98.20
3053;DHT22;1536;51.098;6.414;2023-03-01T05:42:54;2.10;98.30
3053;DHT22;1536;51.098;6.414;2023-03-01T05:45:21;2.10;98.30
3053;DHT22;1536;51.098;6.414;2023-03-01T05:47:49;2.10;98.40
3053;DHT22;1536;51.098;6.414;2023-03-01T05:50:18;2.10;98.40
3053;DHT22;1536;51.098;6.414;2023-03-01T05:52:46;2.10;98.40
3053;DHT22;1536;51.098;6.414;2023-03-01T05:55:15;2.10;98.40
3053;DHT22;1536;51.098;6.414;2023-03-01T05:57:42;2.10;98.40
3053;DHT22;1536;51.098;6.414;2023-03-01T06:00:11;2.10;98.40
3053;DHT22;1536;51.098;6.414;2023-03-01T06:02:38;2.10;98.40
3053;DHT22;1536;51.098;6.414;2023-03-01T06:05:06;2.10;98.40
3053;DHT22;1536;51.098;6.414;2023-03-01T06:07:34;2.10;98.50
3053;DHT22;1536;51.098;6.414;2023-03-01T06:10:01;2.10;98.50
3053;DHT22;1536;51.098;6.414;2023-03-01T06:12:31;2.10;98.50
3053;DHT22;1536;51.098;6.414;2023-03-01T06:14:58;2.10;98.50
3053;DHT22;1536;51.098;6.414;2023-03-01T06:17:25;2.10;98.40
3053;DHT22;1536;51.098;6.414;2023-03-01T06:19:52;2.10;98.40
3053;DHT22;1536;51.098;6.414;2023-03-01T06:22:18;2.10;98.40
3053;DHT22;1536;51.098;6.414;2023-03-01T06:24:45;2.10;98.30
3053;DHT22;1536;51.098;6.414;2023-03-01T06:27:12;2.10;98.40
3053;DHT22;1536;51.098;6.414;2023-03-01T06:29:40;2.10;98.40
3053;DHT22;1536;51.098;6.414;2023-03-01T06:32:07;2.10;98.40
3053;DHT22;1536;51.098;6.414;2023-03-01T06:34:34;2.10;98.40
3053;DHT22;1536;51.098;6.414;2023-03-01T06:37:00;2.10;98.40
3053;DHT22;1536;51.098;6.414;2023-03-01T06:39:30;2.10;98.40
3053;DHT22;1536;51.098;6.414;2023-03-01T06:41:57;2.10;98.50
3053;DHT22;1536;51.098;6.414;2023-03-01T06:44:24;2.10;98.50
3053;DHT22;1536;51.098;6.414;2023-03-01T06:46:52;2.10;98.50
3053;DHT22;1536;51.098;6.414;2023-03-01T06:49:18;2.10;98.50
3053;DHT22;1536;51.098;6.414;2023-03-01T06:51:45;2.10;98.50
3053;DHT22;1536;51.098;6.414;2023-03-01T06:54:12;2.10;98.50
3053;DHT22;1536;51.098;6.414;2023-03-01T06:56:39;2.10;98.50
3053;DHT22;1536;51.098;6.414;2023-03-01T06:59:06;2.10;98.50
3053;DHT22;1536;51.098;6.414;2023-03-01T07:01:32;2.10;98.60
3053;DHT22;1536;51.098;6.414;2023-03-01T07:04:00;2.10;98.60
3053;DHT22;1536;51.098;6.414;2023-03-01T07:06:27;2.10;98.70
3053;DHT22;1536;51.098;6.414;2023-03-01T07:08:54;2.10;98.60
3053;DHT22;1536;51.098;6.414;2023-03-01T07:11:20;2.10;98.60
3053;DHT22;1536;51.098;6.414;2023-03-01T07:13:47;2.20;99.10
3053;DHT22;1536;51.098;6.414;2023-03-01T07:16:14;2.20;98.80
3053;DHT22;1536;51.098;6.414;2023-03-01T07:18:41;2.20;98.90
3053;DHT22;1536;51.098;6.414;2023-03-01T07:21:12;2.20;98.90
3053;DHT22;1536;51.098;6.414;2023-03-01T07:23:39;2.20;98.80
3053;DHT22;1536;51.098;6.414;2023-03-01T07:26:05;2.20;98.80
3053;DHT22;1536;51.098;6.414;2023-03-01T07:28:32;2.20;98.80
3053;DHT22;1536;51.098;6.414;2023-03-01T07:31:02;2.20;98.80
3053;DHT22;1536;51.098;6.414;2023-03-01T07:33:28;2.30;99.00
3053;DHT22;1536;51.098;6.414;2023-03-01T07:35:56;2.30;99.10
3053;DHT22;1536;51.098;6.414;2023-03-01T07:38:25;2.30;99.20
3053;DHT22;1536;51.098;6.414;2023-03-01T07:40:52;2.30;99.10
3053;DHT22;1536;51.098;6.414;2023-03-01T07:43:19;2.30;99.00
3053;DHT22;1536;51.098;6.414;2023-03-01T07:45:46;2.20;99.10
3053;DHT22;1536;51.098;6.414;2023-03-01T07:48:13;2.30;99.20
3053;DHT22;1536;51.098;6.414;2023-03-01T07:50:40;2.30;99.20
3053;DHT22;1536;51.098;6.414;2023-03-01T07:53:06;2.40;99.30
3053;DHT22;1536;51.098;6.414;2023-03-01T07:55:35;2.40;99.40
3053;DHT22;1536;51.098;6.414;2023-03-01T07:58:01;2.40;99.40
3053;DHT22;1536;51.098;6.414;2023-03-01T08:00:28;2.50;99.60
3053;DHT22;1536;51.098;6.414;2023-03-01T08:02:56;2.50;99.40
3053;DHT22;1536;51.098;6.414;2023-03-01T08:05:24;2.50;99.40
3053;DHT22;1536;51.098;6.414;2023-03-01T08:07:51;2.60;99.40
3053;DHT22;1536;51.098;6.414;2023-03-01T08:10:19;2.60;99.40
3053;DHT22;1536;51.098;6.414;2023-03-01T08:12:47;2.60;99.40
3053;DHT22;1536;51.098;6.414;2023-03-01T08:15:14;2.70;99.70
3053;DHT22;1536;51.098;6.414;2023-03-01T08:17:40;2.70;99.30
3053;DHT22;1536;51.098;6.414;2023-03-01T08:20:08;2.80;99.50
3053;DHT22;1536;51.098;6.414;2023-03-01T08:22:37;2.80;99.60
3053;DHT22;1536;51.098;6.414;2023-03-01T08:25:05;2.80;99.50
3053;DHT22;1536;51.098;6.414;2023-03-01T08:27:32;2.90;99.50
3053;DHT22;1536;51.098;6.414;2023-03-01T08:30:00;2.90;99.40
3053;DHT22;1536;51.098;6.414;2023-03-01T08:32:27;3.00;99.30
3053;DHT22;1536;51.098;6.414;2023-03-01T08:34:53;3.00;99.20
3053;DHT22;1536;51.098;6.414;2023-03-01T08:37:20;3.10;99.30
3053;DHT22;1536;51.098;6.414;2023-03-01T08:39:47;3.10;99.20
3053;DHT22;1536;51.098;6.414;2023-03-01T08:42:13;3.20;99.10
3053;DHT22;1536;51.098;6.414;2023-03-01T08:44:40;3.20;99.00
3053;DHT22;1536;51.098;6.414;2023-03-01T08:47:08;3.30;98.90
3053;DHT22;1536;51.098;6.414;2023-03-01T08:49:35;3.30;98.70
3053;DHT22;1536;51.098;6.414;2023-03-01T08:52:02;3.30;98.70
3053;DHT22;1536;51.098;6.414;2023-03-01T08:54:29;3.40;98.70
3053;DHT22;1536;51.098;6.414;2023-03-01T08:56:56;3.40;98.60
3053;DHT22;1536;51.098;6.414;2023-03-01T08:59:25;3.50;98.40
3053;DHT22;1536;51.098;6.414;2023-03-01T09:01:52;3.60;98.30
3053;DHT22;1536;51.098;6.414;2023-03-01T09:04:20;3.60;98.20
3053;DHT22;1536;51.098;6.414;2023-03-01T09:06:46;3.70;98.20
3053;DHT22;1536;51.098;6.414;2023-03-01T09:09:14;3.80;98.10
3053;DHT22;1536;51.098;6.414;2023-03-01T09:11:42;3.80;97.80
3053;DHT22;1536;51.098;6.414;2023-03-01T09:14:11;3.80;97.50
3053;DHT22;1536;51.098;6.414;2023-03-01T09:16:38;3.90;97.50
3053;DHT22;1536;51.098;6.414;2023-03-01T09:19:05;3.90;97.50
3053;DHT22;1536;51.098;6.414;2023-03-01T09:21:33;4.00;97.40
3053;DHT22;1536;51.098;6.414;2023-03-01T09:24:00;4.10;97.50
3053;DHT22;1536;51.098;6.414;2023-03-01T09:26:26;4.10;97.50
3053;DHT22;1536;51.098;6.414;2023-03-01T09:28:55;4.10;97.50
3053;DHT22;1536;51.098;6.414;2023-03-01T09:31:23;4.20;97.50
3053;DHT22;1536;51.098;6.414;2023-03-01T09:33:52;4.20;97.30
3053;DHT22;1536;51.098;6.414;2023-03-01T09:36:21;4.30;97.20
3053;DHT22;1536;51.098;6.414;2023-03-01T09:38:50;4.30;97.20
3053;DHT22;1536;51.098;6.414;2023-03-01T09:41:42;4.40;97.20
3053;DHT22;1536;51.098;6.414;2023-03-01T09:44:18;4.40;97.10
3053;DHT22;1536;51.098;6.414;2023-03-01T09:46:47;4.50;97.10
3053;DHT22;1536;51.098;6.414;2023-03-01T09:49:16;4.60;97.10
3053;DHT22;1536;51.098;6.414;2023-03-01T09:51:53;4.60;97.00
3053;DHT22;1536;51.098;6.414;2023-03-01T09:54:22;4.70;97.00
3053;DHT22;1536;51.098;6.414;2023-03-01T09:57:01;4.70;96.80
3053;DHT22;1536;51.098;6.414;2023-03-01T09:59:37;4.70;96.60
3053;DHT22;1536;51.098;6.414;2023-03-01T10:02:23;4.70;96.60
3053;DHT22;1536;51.098;6.414;2023-03-01T10:04:51;4.80;96.40
3053;DHT22;1536;51.098;6.414;2023-03-01T10:07:27;4.80;96.40
3053;DHT22;1536;51.098;6.414;2023-03-01T10:09:57;4.90;96.30
3053;DHT22;1536;51.098;6.414;2023-03-01T10:12:29;4.90;96.30
3053;DHT22;1536;51.098;6.414;2023-03-01T10:15:00;4.90;96.00
3053;DHT22;1536;51.098;6.414;2023-03-01T10:17:33;4.90;95.90
3053;DHT22;1536;51.098;6.414;2023-03-01T10:20:15;5.00;96.10
3053;DHT22;1536;51.098;6.414;2023-03-01T10:22:43;5.10;95.70
3053;DHT22;1536;51.098;6.414;2023-03-01T10:25:17;5.10;95.60
3053;DHT22;1536;51.098;6.414;2023-03-01T10:27:51;5.10;95.40
3053;DHT22;1536;51.098;6.414;2023-03-01T10:30:21;5.20;95.40
3053;DHT22;1536;51.098;6.414;2023-03-01T10:32:51;5.20;95.40
3053;DHT22;1536;51.098;6.414;2023-03-01T10:35:21;5.20;95.50
3053;DHT22;1536;51.098;6.414;2023-03-01T10:38:02;5.30;95.20
3053;DHT22;1536;51.098;6.414;2023-03-01T10:40:31;5.30;95.40
3053;DHT22;1536;51.098;6.414;2023-03-01T10:43:00;5.40;94.90
3053;DHT22;1536;51.098;6.414;2023-03-01T10:45:34;5.40;94.80
3053;DHT22;1536;51.098;6.414;2023-03-01T10:48:09;5.50;94.70
3053;DHT22;1536;51.098;6.414;2023-03-01T10:50:38;5.60;94.50
3053;DHT22;1536;51.098;6.414;2023-03-01T10:53:21;5.60;94.30
3053;DHT22;1536;51.098;6.414;2023-03-01T10:55:58;5.70;94.00
3053;DHT22;1536;51.098;6.414;2023-03-01T10:58:25;5.70;93.70
3053;DHT22;1536;51.098;6.414;2023-03-01T11:04:09;5.80;92.80
3053;DHT22;1536;51.098;6.414;2023-03-01T11:06:38;5.80;92.30
3053;DHT22;1536;51.098;6.414;2023-03-01T11:09:14;5.90;92.10
3053;DHT22;1536;51.098;6.414;2023-03-01T11:11:42;5.90;92.30
3053;DHT22;1536;51.098;6.414;2023-03-01T11:14:15;6.00;92.20
3053;DHT22;1536;51.098;6.414;2023-03-01T11:16:45;6.00;92.10
3053;DHT22;1536;51.098;6.414;2023-03-01T11:19:16;6.10;92.40
3053;DHT22;1536;51.098;6.414;2023-03-01T11:21:49;6.10;92.20
3053;DHT22;1536;51.098;6.414;2023-03-01T11:24:18;6.10;92.10
3053;DHT22;1536;51.098;6.414;2023-03-01T11:26:51;6.20;91.60
3053;DHT22;1536;51.098;6.414;2023-03-01T11:29:27;6.20;91.80
3053;DHT22;1536;51.098;6.414;2023-03-01T11:31:57;6.20;90.90
3053;DHT22;1536;51.098;6.414;2023-03-01T11:34:42;6.30;90.70
3053;DHT22;1536;51.098;6.414;2023-03-01T11:37:21;6.30;90.50
3053;DHT22;1536;51.098;6.414;2023-03-01T11:39:56;6.30;90.80
3053;DHT22;1536;51.098;6.414;2023-03-01T11:42:31;6.40;90.80
3053;DHT22;1536;51.098;6.414;2023-03-01T11:45:08;6.40;90.40
3053;DHT22;1536;51.098;6.414;2023-03-01T11:47:49;6.40;89.00
3053;DHT22;1536;51.098;6.414;2023-03-01T11:50:28;6.40;89.10
3053;DHT22;1536;51.098;6.414;2023-03-01T11:53:04;6.50;89.10
3053;DHT22;1536;51.098;6.414;2023-03-01T11:55:45;6.50;89.50
3053;DHT22;1536;51.098;6.414;2023-03-01T11:58:31;6.50;89.10
3053;DHT22;1536;51.098;6.414;2023-03-01T12:01:09;6.60;88.50
3053;DHT22;1536;51.098;6.414;2023-03-01T12:03:47;6.60;89.00
3053;DHT22;1536;51.098;6.414;2023-03-01T12:06:32;6.70;88.60
3053;DHT22;1536;51.098;6.414;2023-03-01T12:09:21;6.70;88.00
3053;DHT22;1536;51.098;6.414;2023-03-01T12:11:59;6.70;87.70
3053;DHT22;1536;51.098;6.414;2023-03-01T12:14:51;6.70;87.50
3053;DHT22;1536;51.098;6.414;2023-03-01T12:17:37;6.80;86.70
3053;DHT22;1536;51.098;6.414;2023-03-01T12:20:23;6.80;86.00
3053;DHT22;1536;51.098;6.414;2023-03-01T12:25:55;6.90;87.00
3053;DHT22;1536;51.098;6.414;2023-03-01T12:28:42;7.00;85.10
3053;DHT22;1536;51.098;6.414;2023-03-01T12:31:31;7.00;85.50
3053;DHT22;1536;51.098;6.414;2023-03-01T12:34:05;7.00;86.70
3053;DHT22;1536;51.098;6.414;2023-03-01T12:36:51;7.00;85.70
3053;DHT22;1536;51.098;6.414;2023-03-01T12:39:33;7.10;85.30
3053;DHT22;1536;51.098;6.414;2023-03-01T12:42:10;7.10;86.30
3053;DHT22;1536;51.098;6.414;2023-03-01T12:44:53;7.20;85.50
3053;DHT22;1536;51.098;6.414;2023-03-01T12:47:38;7.20;85.90
3053;DHT22;1536;51.098;6.414;2023-03-01T12:50:13;7.20;84.00
3053;DHT22;1536;51.098;6.414;2023-03-01T12:52:44;7.20;85.30
3053;DHT22;1536;51.098;6.414;2023-03-01T12:55:24;7.30;85.40
3053;DHT22;1536;51.098;6.414;2023-03-01T12:58:00;7.30;85.60
3053;DHT22;1536;51.098;6.414;2023-03-01T13:00:35;7.30;84.60
3053;DHT22;1536;51.098;6.414;2023-03-01T13:03:12;7.40;84.60
3053;DHT22;1536;51.098;6.414;2023-03-01T13:05:47;7.40;82.70
3053;DHT22;1536;51.098;6.414;2023-03-01T13:08:22;7.40;84.20
3053;DHT22;1536;51.098;6.414;2023-03-01T13:10:56;7.50;84.00
3053;DHT22;1536;51.098;6.414;2023-03-01T13:13:26;7.50;83.70
3053;DHT22;1536;51.098;6.414;2023-03-01T13:15:53;7.50;83.90
3053;DHT22;1536;51.098;6.414;2023-03-01T13:18:30;7.50;83.90
3053;DHT22;1536;51.098;6.414;2023-03-01T13:21:00;7.60;83.60
3053;DHT22;1536;51.098;6.414;2023-03-01T13:23:30;7.60;83.60
3053;DHT22;1536;51.098;6.414;2023-03-01T13:26:02;7.60;82.80
3053;DHT22;1536;51.098;6.414;2023-03-01T13:28:41;7.70;82.00
3053;DHT22;1536;51.098;6.414;2023-03-01T13:31:57;7.70;82.30
3053;DHT22;1536;51.098;6.414;2023-03-01T13:34:46;7.80;83.30
3053;DHT22;1536;51.098;6.414;2023-03-01T13:37:27;7.80;81.90
3053;DHT22;1536;51.098;6.414;2023-03-01T13:39:57;7.80;81.00
3053;DHT22;1536;51.098;6.414;2023-03-01T13:42:36;7.80;80.50
3053;DHT22;1536;51.098;6.414;2023-03-01T13:45:12;7.80;80.60
3053;DHT22;1536;51.098;6.414;2023-03-01T13:47:43;7.80;79.30
3053;DHT22;1536;51.098;6.414;2023-03-01T13:50:19;7.80;75.90
3053;DHT22;1536;51.098;6.414;2023-03-01T13:52:50;7.80;75.50
3053;DHT22;1536;51.098;6.414;2023-03-01T13:55:22;7.80;77.30
3053;DHT22;1536;51.098;6.414;2023-03-01T13:57:52;7.90;77.30
3053;DHT22;1536;51.098;6.414;2023-03-01T14:00:32;7.80;76.30
3053;DHT22;1536;51.098;6.414;2023-03-01T14:03:11;7.90;77.70
3053;DHT22;1536;51.098;6.414;2023-03-01T14:05:39;7.90;75.10
3053;DHT22;1536;51.098;6.414;2023-03-01T14:08:19;7.90;76.60
3053;DHT22;1536;51.098;6.414;2023-03-01T14:10:54;7.90;76.60
3053;DHT22;1536;51.098;6.414;2023-03-01T14:13:33;8.00;77.10
3053;DHT22;1536;51.098;6.414;2023-03-01T14:16:17;8.00;77.40
3053;DHT22;1536;51.098;6.414;2023-03-01T14:18:53;8.00;76.50
3053;DHT22;1536;51.098;6.414;2023-03-01T14:21:22;8.10;78.00
3053;DHT22;1536;51.098;6.414;2023-03-01T14:23:51;8.20;77.80
3053;DHT22;1536;51.098;6.414;2023-03-01T14:26:20;8.20;78.00
3053;DHT22;1536;51.098;6.414;2023-03-01T14:28:48;8.20;76.30
3053;DHT22;1536;51.098;6.414;2023-03-01T14:31:35;8.20;76.50
3053;DHT22;1536;51.098;6.414;2023-03-01T14:34:04;8.20;77.30
3053;DHT22;1536;51.098;6.414;2023-03-01T14:36:33;8.20;76.90
3053;DHT22;1536;51.098;6.414;2023-03-01T14:39:00;8.20;75.20
3053;DHT22;1536;51.098;6.414;2023-03-01T14:41:33;8.20;75.20
3053;DHT22;1536;51.098;6.414;2023-03-01T14:44:03;8.30;76.50
3053;DHT22;1536;51.098;6.414;2023-03-01T14:46:33;8.20;75.00
3053;DHT22;1536;51.098;6.414;2023-03-01T14:49:05;8.30;75.50
3053;DHT22;1536;51.098;6.414;2023-03-01T14:51:36;8.30;75.70
3053;DHT22;1536;51.098;6.414;2023-03-01T14:54:11;8.30;75.30
3053;DHT22;1536;51.098;6.414;2023-03-01T14:56:45;8.40;75.60
3053;DHT22;1536;51.098;6.414;2023-03-01T14:59:13;8.40;76.00
3053;DHT22;1536;51.098;6.414;2023-03-01T15:01:40;8.40;75.10
3053;DHT22;1536;51.098;6.414;2023-03-01T15:04:12;8.40;74.00
3053;DHT22;1536;51.098;6.414;2023-03-01T15:06:39;8.40;74.70
3053;DHT22;1536;51.098;6.414;2023-03-01T15:09:11;8.40;74.40
3053;DHT22;1536;51.098;6.414;2023-03-01T15:11:38;8.40;74.70
3053;DHT22;1536;51.098;6.414;2023-03-01T15:14:27;8.50;75.30
3053;DHT22;1536;51.098;6.414;2023-03-01T15:16:55;8.50;75.70
3053;DHT22;1536;51.098;6.414;2023-03-01T15:19:24;8.50;77.00
3053;DHT22;1536;51.098;6.414;2023-03-01T15:21:52;8.60;77.20
3053;DHT22;1536;51.098;6.414;2023-03-01T15:24:23;8.60;76.70
3053;DHT22;1536;51.098;6.414;2023-03-01T15:26:52;8.60;76.30
3053;DHT22;1536;51.098;6.414;2023-03-01T15:29:23;8.60;76.20
3053;DHT22;1536;51.098;6.414;2023-03-01T15:31:57;8.60;75.30
3053;DHT22;1536;51.098;6.414;2023-03-01T15:34:27;8.60;75.40
3053;DHT22;1536;51.098;6.414;2023-03-01T15:36:55;8.60;75.60
3053;DHT22;1536;51.098;6.414;2023-03-01T15:39:31;8.60;75.60
3053;DHT22;1536;51.098;6.414;2023-03-01T15:42:03;8.60;75.80
3053;DHT22;1536;51.098;6.414;2023-03-01T15:44:32;8.50;76.00
3053;DHT22;1536;51.098;6.414;2023-03-01T15:47:00;8.50;76.90
3053;DHT22;1536;51.098;6.414;2023-03-01T15:49:34;8.50;77.20
3053;DHT22;1536;51.098;6.414;2023-03-01T15:52:03;8.60;77.70
3053;DHT22;1536;51.098;6.414;2023-03-01T15:54:30;8.50;77.20
3053;DHT22;1536;51.098;6.414;2023-03-01T15:56:57;8.50;77.60
3053;DHT22;1536;51.098;6.414;2023-03-01T15:59:24;8.50;77.50
3053;DHT22;1536;51.098;6.414;2023-03-01T16:01:50;8.50;77.40
3053;DHT22;1536;51.098;6.414;2023-03-01T16:04:18;8.40;76.70
3053;DHT22;1536;51.098;6.414;2023-03-01T16:06:50;8.40;77.70
3053;DHT22;1536;51.098;6.414;2023-03-01T16:09:21;8.40;78.00
3053;DHT22;1536;51.098;6.414;2023-03-01T16:11:49;8.40;78.30
3053;DHT22;1536;51.098;6.414;2023-03-01T16:14:16;8.30;77.60
3053;DHT22;1536;51.098;6.414;2023-03-01T16:16:43;8.30;77.50
3053;DHT22;1536;51.098;6.414;2023-03-01T16:19:10;8.20;77.50
3053;DHT22;1536;51.098;6.414;2023-03-01T16:21:37;8.20;77.90
3053;DHT22;1536;51.098;6.414;2023-03-01T16:24:06;8.10;77.00
3053;DHT22;1536;51.098;6.414;2023-03-01T16:26:33;8.10;77.80
3053;DHT22;1536;51.098;6.414;2023-03-01T16:29:00;8.10;77.70
3053;DHT22;1536;51.098;6.414;2023-03-01T16:31:26;8.00;76.90
3053;DHT22;1536;51.098;6.414;2023-03-01T16:33:54;8.00;76.50
3053;DHT22;1536;51.098;6.414;2023-03-01T16:36:22;8.00;77.80
3053;DHT22;1536;51.098;6.414;2023-03-01T16:38:50;8.00;77.60
3053;DHT22;1536;51.098;6.414;2023-03-01T16:41:21;7.90;77.50
3053;DHT22;1536;51.098;6.414;2023-03-01T16:43:49;7.90;78.00
3053;DHT22;1536;51.098;6.414;2023-03-01T16:46:17;7.90;78.10
3053;DHT22;1536;51.098;6.414;2023-03-01T16:48:45;7.90;78.10